Time,TemperatureF,DewpointF,PressureIn,WindDirection,WindDirectionDegrees,WindSpeedMPH,WindSpeedGustMPH,Humidity,HourlyPrecipIn,Conditions,Clouds,dailyrainin,SolarRadiationWatts/m^2,SoftwareType,DateUTC
2014-02-14 00:02:00,28.0,26.0,-100.00,WSW,242,8.0,13.0,91,0.00,,,0.07,0.000000,,2014-02-14 05:02:00,
2014-02-14 00:12:00,28.0,26.0,-100.00,WSW,242,8.0,13.0,91,0.00,,,0.07,0.000000,,2014-02-14 05:12:00,
2014-02-14 04:54:00,27.0,20.0,-100.00,SW,219,9.0,17.0,75,-99.99,,,0.07,0.000000,,2014-02-14 09:54:00,
2014-02-14 05:03:00,27.0,20.0,-100.00,SW,219,9.0,17.0,75,-99.99,,,0.07,0.000000,,2014-02-14 10:03:00,
2014-02-14 05:13:00,27.0,20.0,-100.00,SW,219,9.0,17.0,75,-99.99,,,0.07,0.000000,,2014-02-14 10:13:00,
2014-02-14 05:43:00,28.0,20.0,-100.00,SW,224,10.0,18.0,70,0.00,,,0.07,0.000000,,2014-02-14 10:43:00,
2014-02-14 05:53:00,28.0,20.0,-100.00,SW,224,10.0,18.0,70,0.00,,,0.07,0.000000,,2014-02-14 10:53:00,
2014-02-14 06:03:00,28.0,20.0,-100.00,SW,224,10.0,18.0,70,0.00,,,0.07,0.000000,,2014-02-14 11:03:00,
2014-02-14 06:12:00,28.0,20.0,-100.00,SW,224,10.0,18.0,70,0.00,,,0.07,0.000000,,2014-02-14 11:12:00,
2014-02-14 06:42:00,29.0,19.0,-100.00,SW,225,13.0,23.0,66,0.00,,,0.07,0.000000,,2014-02-14 11:42:00,
2014-02-14 06:53:00,29.0,19.0,-100.00,SW,225,13.0,23.0,66,0.00,,,0.07,0.000000,,2014-02-14 11:53:00,
2014-02-14 07:02:00,29.0,19.0,-100.00,SW,225,13.0,23.0,66,0.00,,,0.07,0.000000,,2014-02-14 12:02:00,
2014-02-14 07:12:00,29.0,19.0,-100.00,SW,225,13.0,23.0,66,0.00,,,0.07,0.000000,,2014-02-14 12:12:00,
2014-02-14 07:42:00,29.0,19.0,-100.00,SW,221,11.0,21.0,66,0.00,,,0.07,0.000000,,2014-02-14 12:42:00,
2014-02-14 07:52:00,29.0,19.0,-100.00,SW,221,11.0,21.0,66,0.00,,,0.07,0.000000,,2014-02-14 12:52:00,
2014-02-14 08:02:00,29.0,19.0,-100.00,SW,221,11.0,21.0,66,0.00,,,0.07,0.000000,,2014-02-14 13:02:00,
2014-02-14 08:12:00,29.0,19.0,-100.00,SW,221,11.0,21.0,66,0.00,,,0.07,0.000000,,2014-02-14 13:12:00,
2014-02-14 08:42:00,31.0,21.0,-100.00,SW,221,14.0,27.0,67,0.00,,,0.07,11.000000,,2014-02-14 13:42:00,
2014-02-14 08:52:00,31.0,21.0,-100.00,SW,221,14.0,27.0,67,0.00,,,0.07,11.000000,,2014-02-14 13:52:00,
2014-02-14 09:02:00,31.0,21.0,-100.00,SW,221,14.0,27.0,67,0.00,,,0.07,11.000000,,2014-02-14 14:02:00,
2014-02-14 09:12:00,31.0,21.0,-100.00,SW,221,14.0,27.0,67,0.00,,,0.07,11.000000,,2014-02-14 14:12:00,
2014-02-14 09:42:00,31.0,21.0,-100.00,SW,231,14.0,37.0,67,0.00,,,0.07,34.000000,,2014-02-14 14:42:00,
2014-02-14 09:53:00,31.0,21.0,-100.00,SW,231,14.0,37.0,67,0.00,,,0.07,34.000000,,2014-02-14 14:53:00,
2014-02-14 10:02:00,31.0,21.0,-100.00,SW,231,14.0,37.0,67,0.00,,,0.07,34.000000,,2014-02-14 15:02:00,
2014-02-14 10:11:00,31.0,21.0,-100.00,SW,231,14.0,37.0,67,0.00,,,0.07,34.000000,,2014-02-14 15:11:00,
2014-02-14 10:43:00,31.0,21.0,-100.00,SW,230,14.0,30.0,65,0.00,,,0.07,72.000000,,2014-02-14 15:43:00,
2014-02-14 10:54:00,31.0,21.0,-100.00,SW,230,14.0,30.0,65,0.00,,,0.07,72.000000,,2014-02-14 15:54:00,
2014-02-14 11:04:00,31.0,21.0,-100.00,SW,230,14.0,30.0,65,0.00,,,0.07,72.000000,,2014-02-14 16:04:00,
2014-02-14 11:13:00,31.0,21.0,-100.00,SW,230,14.0,30.0,65,0.00,,,0.07,72.000000,,2014-02-14 16:13:00,
2014-02-14 11:43:00,32.0,21.0,-100.00,SW,230,13.0,26.0,64,0.00,,,0.07,141.000000,,2014-02-14 16:43:00,
2014-02-14 11:53:00,32.0,21.0,-100.00,SW,230,13.0,26.0,64,0.00,,,0.07,141.000000,,2014-02-14 16:53:00,
2014-02-14 12:02:00,32.0,21.0,-100.00,SW,230,13.0,26.0,64,0.00,,,0.07,141.000000,,2014-02-14 17:02:00,
2014-02-14 12:12:00,32.0,21.0,-100.00,SW,230,13.0,26.0,64,0.00,,,0.07,141.000000,,2014-02-14 17:12:00,
2014-02-14 12:43:00,34.0,21.0,-100.00,SW,236,14.0,24.0,59,0.01,,,0.08,272.000000,,2014-02-14 17:43:00,
2014-02-14 12:53:00,34.0,21.0,-100.00,SW,236,14.0,24.0,59,0.01,,,0.08,272.000000,,2014-02-14 17:53:00,
2014-02-14 13:02:00,34.0,21.0,-100.00,SW,236,14.0,24.0,59,0.01,,,0.08,272.000000,,2014-02-14 18:02:00,
2014-02-14 13:12:00,34.0,21.0,-100.00,SW,236,14.0,24.0,59,0.01,,,0.08,272.000000,,2014-02-14 18:12:00,
2014-02-14 13:43:00,38.0,22.0,-100.00,WSW,238,11.0,25.0,53,0.02,,,0.10,525.000000,,2014-02-14 18:43:00,
2014-02-14 13:52:00,38.0,22.0,-100.00,WSW,238,11.0,25.0,53,0.02,,,0.10,525.000000,,2014-02-14 18:52:00,
2014-02-14 14:02:00,38.0,22.0,-100.00,WSW,238,11.0,25.0,53,0.02,,,0.10,525.000000,,2014-02-14 19:02:00,
2014-02-14 14:11:00,38.0,22.0,-100.00,WSW,238,11.0,25.0,53,0.02,,,0.10,525.000000,,2014-02-14 19:11:00,
2014-02-14 14:42:00,39.0,21.0,-100.00,SW,233,12.0,25.0,49,0.02,,,0.12,459.000000,,2014-02-14 19:42:00,
2014-02-14 14:53:00,39.0,21.0,-100.00,SW,233,12.0,25.0,49,0.02,,,0.12,459.000000,,2014-02-14 19:53:00,
2014-02-14 15:02:00,39.0,21.0,-100.00,SW,233,12.0,25.0,49,0.02,,,0.12,459.000000,,2014-02-14 20:02:00,
2014-02-14 15:12:00,39.0,21.0,-100.00,SW,233,12.0,25.0,49,0.02,,,0.12,459.000000,,2014-02-14 20:12:00,
2014-02-14 15:42:00,40.0,20.0,-100.00,SW,234,14.0,23.0,45,0.01,,,0.13,429.000000,,2014-02-14 20:42:00,
2014-02-14 15:53:00,40.0,20.0,-100.00,SW,234,14.0,23.0,45,0.01,,,0.13,429.000000,,2014-02-14 20:53:00,
2014-02-14 16:03:00,40.0,20.0,-100.00,SW,234,14.0,23.0,45,0.01,,,0.13,429.000000,,2014-02-14 21:03:00,
2014-02-14 16:11:00,40.0,20.0,-100.00,SW,234,14.0,23.0,45,0.01,,,0.13,429.000000,,2014-02-14 21:11:00,
2014-02-14 16:44:00,40.0,21.0,-100.00,WSW,241,9.0,23.0,46,0.02,,,0.10,253.000000,,2014-02-14 21:44:00,
2014-02-14 16:54:00,40.0,21.0,-100.00,WSW,241,9.0,23.0,46,0.02,,,0.10,253.000000,,2014-02-14 21:54:00,
2014-02-14 17:03:00,40.0,21.0,-100.00,WSW,241,9.0,23.0,46,0.02,,,0.10,253.000000,,2014-02-14 22:03:00,
2014-02-14 17:13:00,40.0,21.0,-100.00,WSW,241,9.0,23.0,46,0.02,,,0.10,253.000000,,2014-02-14 22:13:00,
2014-02-14 17:43:00,38.0,19.0,-100.00,SW,231,9.0,17.0,45,0.02,,,0.10,127.000000,,2014-02-14 22:43:00,
2014-02-14 17:53:00,38.0,19.0,-100.00,SW,231,9.0,17.0,45,0.02,,,0.10,127.000000,,2014-02-14 22:53:00,
2014-02-14 18:03:00,38.0,19.0,-100.00,SW,231,9.0,17.0,45,0.02,,,0.10,127.000000,,2014-02-14 23:03:00,
2014-02-14 18:12:00,38.0,19.0,-100.00,SW,231,9.0,17.0,45,0.02,,,0.10,127.000000,,2014-02-14 23:12:00,
2014-02-14 18:43:00,37.0,20.0,-100.00,SW,219,10.0,19.0,49,0.01,,,0.11,8.000000,,2014-02-14 23:43:00,
2014-02-14 18:53:00,37.0,20.0,-100.00,SW,219,10.0,19.0,49,0.01,,,0.11,8.000000,,2014-02-14 23:53:00,
2014-02-14 19:02:00,37.0,20.0,-100.00,SW,219,10.0,19.0,49,0.01,,,0.11,8.000000,,2014-02-15 00:02:00,
2014-02-14 19:12:00,37.0,20.0,-100.00,SW,219,10.0,19.0,49,0.01,,,0.11,8.000000,,2014-02-15 00:12:00,
2014-02-14 19:42:00,33.0,23.0,-100.00,WSW,255,5.0,16.0,66,0.00,,,0.11,0.000000,,2014-02-15 00:42:00,
2014-02-14 19:52:00,33.0,23.0,-100.00,WSW,255,5.0,16.0,66,0.00,,,0.11,0.000000,,2014-02-15 00:52:00,
2014-02-14 20:02:00,33.0,23.0,-100.00,WSW,255,5.0,16.0,66,0.00,,,0.11,0.000000,,2014-02-15 01:02:00,
2014-02-14 20:11:00,33.0,23.0,-100.00,WSW,255,5.0,16.0,66,0.00,,,0.11,0.000000,,2014-02-15 01:11:00,
2014-02-14 20:43:00,32.0,27.0,-100.00,ENE,66,2.0,6.0,83,0.00,,,0.11,0.000000,,2014-02-15 01:43:00,
2014-02-14 20:52:00,32.0,27.0,-100.00,ENE,66,2.0,6.0,83,0.00,,,0.11,0.000000,,2014-02-15 01:52:00,
2014-02-14 21:02:00,32.0,27.0,-100.00,ENE,66,2.0,6.0,83,0.00,,,0.11,0.000000,,2014-02-15 02:02:00,
2014-02-14 21:12:00,32.0,27.0,-100.00,ENE,66,2.0,6.0,83,0.00,,,0.11,0.000000,,2014-02-15 02:12:00,
2014-02-14 21:42:00,31.0,28.0,-100.00,NNW,338,2.0,4.0,87,0.00,,,0.11,0.000000,,2014-02-15 02:42:00,
2014-02-14 21:52:00,31.0,28.0,-100.00,NNW,338,2.0,4.0,87,0.00,,,0.11,0.000000,,2014-02-15 02:52:00,
2014-02-14 22:02:00,31.0,28.0,-100.00,NNW,338,2.0,4.0,87,0.00,,,0.11,0.000000,,2014-02-15 03:02:00,
2014-02-14 22:11:00,31.0,28.0,-100.00,NNW,338,2.0,4.0,87,0.00,,,0.11,0.000000,,2014-02-15 03:11:00,
2014-02-14 22:43:00,31.0,28.0,-100.00,NE,50,1.0,4.0,90,0.00,,,0.11,0.000000,,2014-02-15 03:43:00,
2014-02-14 22:53:00,31.0,28.0,-100.00,NE,50,1.0,4.0,90,0.00,,,0.11,0.000000,,2014-02-15 03:53:00,
2014-02-14 23:04:00,31.0,28.0,-100.00,NE,50,1.0,4.0,90,0.00,,,0.11,0.000000,,2014-02-15 04:04:00,
2014-02-14 23:13:00,31.0,28.0,-100.00,NE,50,1.0,4.0,90,0.00,,,0.11,0.000000,,2014-02-15 04:13:00,
2014-02-14 23:43:00,31.0,29.0,-100.00,North,-999,0.0,5.0,94,0.00,,,0.11,0.000000,,2014-02-15 04:43:00,
2014-02-14 23:52:00,31.0,29.0,-100.00,North,-999,0.0,5.0,94,0.00,,,0.11,0.000000,,2014-02-15 04:52:00,